sensor_id;sensor_type;location;lat;lon;timestamp;temperature;humidity
28171;DHT22;15458;53.346;-1.688;2023-03-01T00:01:38;4.80;99.90
28171;DHT22;15458;53.346;-1.688;2023-03-01T00:04:07;4.80;99.90
28171;DHT22;15458;53.346;-1.688;2023-03-01T00:06:34;4.80;99.90
28171;DHT22;15458;53.346;-1.688;2023-03-01T00:09:06;4.90;99.90
28171;DHT22;15458;53.346;-1.688;2023-03-01T00:11:33;4.90;99.90
28171;DHT22;15458;53.346;-1.688;2023-03-01T00:14:08;5.00;99.90
28171;DHT22;15458;53.346;-1.688;2023-03-01T00:16:42;5.00;99.90
28171;DHT22;15458;53.346;-1.688;2023-03-01T00:19:14;4.90;99.90
28171;DHT22;15458;53.346;-1.688;2023-03-01T00:24:56;5.00;99.90
28171;DHT22;15458;53.346;-1.688;2023-03-01T00:27:22;4.90;99.90
28171;DHT22;15458;53.346;-1.688;2023-03-01T00:29:48;4.90;99.90
28171;DHT22;15458;53.346;-1.688;2023-03-01T00:32:14;4.90;99.90
28171;DHT22;15458;53.346;-1.688;2023-03-01T00:34:43;4.90;99.90
28171;DHT22;15458;53.346;-1.688;2023-03-01T00:37:23;4.90;99.90
28171;DHT22;15458;53.346;-1.688;2023-03-01T00:39:49;4.90;99.90
28171;DHT22;15458;53.346;-1.688;2023-03-01T00:42:16;4.90;99.90
28171;DHT22;15458;53.346;-1.688;2023-03-01T00:44:45;4.90;99.90
28171;DHT22;15458;53.346;-1.688;2023-03-01T00:47:11;4.90;99.90
28171;DHT22;15458;53.346;-1.688;2023-03-01T00:49:36;4.90;99.90
28171;DHT22;15458;53.346;-1.688;2023-03-01T00:52:02;4.90;99.90
28171;DHT22;15458;53.346;-1.688;2023-03-01T00:54:28;4.90;99.90
28171;DHT22;15458;53.346;-1.688;2023-03-01T00:56:54;5.00;99.90
28171;DHT22;15458;53.346;-1.688;2023-03-01T00:59:20;5.00;99.90
28171;DHT22;15458;53.346;-1.688;2023-03-01T01:01:46;5.00;99.90
28171;DHT22;15458;53.346;-1.688;2023-03-01T01:04:16;5.00;99.90
28171;DHT22;15458;53.346;-1.688;2023-03-01T01:06:46;5.00;99.90
28171;DHT22;15458;53.346;-1.688;2023-03-01T01:09:16;5.00;99.90
28171;DHT22;15458;53.346;-1.688;2023-03-01T01:11:49;5.00;99.90
28171;DHT22;15458;53.346;-1.688;2023-03-01T01:14:17;5.00;99.90
28171;DHT22;15458;53.346;-1.688;2023-03-01T01:16:46;5.00;99.90
28171;DHT22;15458;53.346;-1.688;2023-03-01T01:19:14;4.90;99.90
28171;DHT22;15458;53.346;-1.688;2023-03-01T01:21:40;4.90;99.90
28171;DHT22;15458;53.346;-1.688;2023-03-01T01:24:10;4.90;99.90
28171;DHT22;15458;53.346;-1.688;2023-03-01T01:26:36;4.90;99.90
28171;DHT22;15458;53.346;-1.688;2023-03-01T01:29:04;4.90;99.90
28171;DHT22;15458;53.346;-1.688;2023-03-01T01:31:31;4.90;99.90
28171;DHT22;15458;53.346;-1.688;2023-03-01T01:33:59;4.80;99.90
28171;DHT22;15458;53.346;-1.688;2023-03-01T01:36:25;4.80;99.90
28171;DHT22;15458;53.346;-1.688;2023-03-01T01:38:51;4.80;99.90
28171;DHT22;15458;53.346;-1.688;2023-03-01T01:41:19;4.80;99.90
28171;DHT22;15458;53.346;-1.688;2023-03-01T01:44:24;4.80;99.90
28171;DHT22;15458;53.346;-1.688;2023-03-01T01:49:46;4.80;99.90
28171;DHT22;15458;53.346;-1.688;2023-03-01T01:52:25;4.80;99.90
28171;DHT22;15458;53.346;-1.688;2023-03-01T01:54:56;4.80;99.90
28171;DHT22;15458;53.346;-1.688;2023-03-01T01:57:32;4.70;99.90
28171;DHT22;15458;53.346;-1.688;2023-03-01T02:00:09;4.70;99.90
28171;DHT22;15458;53.346;-1.688;2023-03-01T02:02:36;4.70;99.90
28171;DHT22;15458;53.346;-1.688;2023-03-01T02:05:32;4.70;99.90
28171;DHT22;15458;53.346;-1.688;2023-03-01T02:08:02;4.70;99.90
28171;DHT22;15458;53.346;-1.688;2023-03-01T02:10:28;4.70;99.90
28171;DHT22;15458;53.346;-1.688;2023-03-01T02:12:57;4.70;99.90
28171;DHT22;15458;53.346;-1.688;2023-03-01T02:15:24;4.70;99.90
28171;DHT22;15458;53.346;-1.688;2023-03-01T02:17:50;4.70;99.90
28171;DHT22;15458;53.346;-1.688;2023-03-01T02:20:26;4.70;99.90
28171;DHT22;15458;53.346;-1.688;2023-03-01T02:22:55;4.70;99.90
28171;DHT22;15458;53.346;-1.688;2023-03-01T02:30:31;4.70;99.90
28171;DHT22;15458;53.346;-1.688;2023-03-01T02:33:00;4.70;99.90
28171;DHT22;15458;53.346;-1.688;2023-03-01T02:35:33;4.60;99.90
28171;DHT22;15458;53.346;-1.688;2023-03-01T02:38:01;4.70;99.90
28171;DHT22;15458;53.346;-1.688;2023-03-01T02:40:31;4.70;99.90
28171;DHT22;15458;53.346;-1.688;2023-03-01T02:42:58;4.70;99.90
28171;DHT22;15458;53.346;-1.688;2023-03-01T02:45:26;4.70;99.90
28171;DHT22;15458;53.346;-1.688;2023-03-01T02:47:57;4.60;99.90
28171;DHT22;15458;53.346;-1.688;2023-03-01T02:55:27;4.60;99.90
28171;DHT22;15458;53.346;-1.688;2023-03-01T02:57:53;4.60;99.90
28171;DHT22;15458;53.346;-1.688;2023-03-01T03:00:29;4.60;99.90
28171;DHT22;15458;53.346;-1.688;2023-03-01T03:02:56;4.60;99.90
28171;DHT22;15458;53.346;-1.688;2023-03-01T03:05:27;4.60;99.90
28171;DHT22;15458;53.346;-1.688;2023-03-01T03:07:54;4.60;99.90
28171;DHT22;15458;53.346;-1.688;2023-03-01T03:10:26;4.60;99.90
28171;DHT22;15458;53.346;-1.688;2023-03-01T03:13:11;4.60;99.90
28171;DHT22;15458;53.346;-1.688;2023-03-01T03:15:42;4.60;99.90
28171;DHT22;15458;53.346;-1.688;2023-03-01T03:18:11;4.70;99.90
28171;DHT22;15458;53.346;-1.688;2023-03-01T03:20:39;4.60;99.90
28171;DHT22;15458;53.346;-1.688;2023-03-01T03:23:05;4.70;99.90
28171;DHT22;15458;53.346;-1.688;2023-03-01T03:25:31;4.60;99.90
28171;DHT22;15458;53.346;-1.688;2023-03-01T03:27:58;4.70;99.90
28171;DHT22;15458;53.346;-1.688;2023-03-01T03:30:31;4.60;99.90
28171;DHT22;15458;53.346;-1.688;2023-03-01T03:32:58;4.60;99.90
28171;DHT22;15458;53.346;-1.688;2023-03-01T03:35:29;4.70;99.90
28171;DHT22;15458;53.346;-1.688;2023-03-01T03:38:01;4.60;99.90
28171;DHT22;15458;53.346;-1.688;2023-03-01T03:40:34;4.70;99.90
28171;DHT22;15458;53.346;-1.688;2023-03-01T03:43:00;4.70;99.90
28171;DHT22;15458;53.346;-1.688;2023-03-01T03:45:26;4.70;99.90
28171;DHT22;15458;53.346;-1.688;2023-03-01T03:47:52;4.70;99.90
28171;DHT22;15458;53.346;-1.688;2023-03-01T03:50:19;4.70;99.90
28171;DHT22;15458;53.346;-1.688;2023-03-01T03:52:44;4.70;99.90
28171;DHT22;15458;53.346;-1.688;2023-03-01T03:55:11;4.60;99.90
28171;DHT22;15458;53.346;-1.688;2023-03-01T03:57:38;4.60;99.90
28171;DHT22;15458;53.346;-1.688;2023-03-01T04:00:07;4.60;99.90
28171;DHT22;15458;53.346;-1.688;2023-03-01T04:02:42;4.60;99.90
28171;DHT22;15458;53.346;-1.688;2023-03-01T04:05:09;4.60;99.90
28171;DHT22;15458;53.346;-1.688;2023-03-01T04:07:36;4.60;99.90
28171;DHT22;15458;53.346;-1.688;2023-03-01T04:10:05;4.60;99.90
28171;DHT22;15458;53.346;-1.688;2023-03-01T04:12:32;4.50;99.90
28171;DHT22;15458;53.346;-1.688;2023-03-01T04:15:00;4.50;99.90
28171;DHT22;15458;53.346;-1.688;2023-03-01T04:17:26;4.50;99.90
28171;DHT22;15458;53.346;-1.688;2023-03-01T04:19:52;4.50;99.90
28171;DHT22;15458;53.346;-1.688;2023-03-01T04:22:18;4.50;99.90
28171;DHT22;15458;53.346;-1.688;2023-03-01T04:24:44;4.50;99.90
28171;DHT22;15458;53.346;-1.688;2023-03-01T04:27:11;4.50;99.90
28171;DHT22;15458;53.346;-1.688;2023-03-01T04:29:37;4.50;99.90
28171;DHT22;15458;53.346;-1.688;2023-03-01T04:32:03;4.50;99.90
28171;DHT22;15458;53.346;-1.688;2023-03-01T04:34:29;4.50;99.90
28171;DHT22;15458;53.346;-1.688;2023-03-01T04:36:55;4.50;99.90
28171;DHT22;15458;53.346;-1.688;2023-03-01T04:39:21;4.50;99.90
28171;DHT22;15458;53.346;-1.688;2023-03-01T04:41:46;4.50;99.90
28171;DHT22;15458;53.346;-1.688;2023-03-01T04:44:12;4.50;99.90
28171;DHT22;15458;53.346;-1.688;2023-03-01T04:46:38;4.50;99.90
28171;DHT22;15458;53.346;-1.688;2023-03-01T04:49:04;4.50;99.90
28171;DHT22;15458;53.346;-1.688;2023-03-01T04:51:31;4.60;99.90
28171;DHT22;15458;53.346;-1.688;2023-03-01T04:53:58;4.60;99.90
28171;DHT22;15458;53.346;-1.688;2023-03-01T04:56:23;4.50;99.90
28171;DHT22;15458;53.346;-1.688;2023-03-01T04:58:49;4.50;99.90
28171;DHT22;15458;53.346;-1.688;2023-03-01T05:01:18;4.50;99.90
28171;DHT22;15458;53.346;-1.688;2023-03-01T05:03:49;4.60;99.90
28171;DHT22;15458;53.346;-1.688;2023-03-01T05:06:15;4.70;99.90
28171;DHT22;15458;53.346;-1.688;2023-03-01T05:08:43;4.70;99.90
28171;DHT22;15458;53.346;-1.688;2023-03-01T05:11:09;4.80;99.90
28171;DHT22;15458;53.346;-1.688;2023-03-01T05:13:36;4.70;99.90
28171;DHT22;15458;53.346;-1.688;2023-03-01T05:16:03;4.70;99.90
28171;DHT22;15458;53.346;-1.688;2023-03-01T05:18:31;4.70;99.90
28171;DHT22;15458;53.346;-1.688;2023-03-01T05:21:07;4.70;99.90
28171;DHT22;15458;53.346;-1.688;2023-03-01T05:23:33;4.70;99.90
28171;DHT22;15458;53.346;-1.688;2023-03-01T05:26:00;4.70;99.90
28171;DHT22;15458;53.346;-1.688;2023-03-01T05:28:27;4.80;99.90
28171;DHT22;15458;53.346;-1.688;2023-03-01T05:30:56;4.80;99.90
28171;DHT22;15458;53.346;-1.688;2023-03-01T05:33:23;4.80;99.90
28171;DHT22;15458;53.346;-1.688;2023-03-01T05:35:50;4.80;99.90
28171;DHT22;15458;53.346;-1.688;2023-03-01T05:38:17;4.80;99.90
28171;DHT22;15458;53.346;-1.688;2023-03-01T05:40:45;4.70;99.90
28171;DHT22;15458;53.346;-1.688;2023-03-01T05:43:12;4.70;99.90
28171;DHT22;15458;53.346;-1.688;2023-03-01T05:45:39;4.70;99.90
28171;DHT22;15458;53.346;-1.688;2023-03-01T05:48:06;4.70;99.90
28171;DHT22;15458;53.346;-1.688;2023-03-01T05:50:38;4.70;99.90
28171;DHT22;15458;53.346;-1.688;2023-03-01T05:53:08;4.70;99.90
28171;DHT22;15458;53.346;-1.688;2023-03-01T05:55:36;4.70;99.90
28171;DHT22;15458;53.346;-1.688;2023-03-01T05:58:07;4.60;99.90
28171;DHT22;15458;53.346;-1.688;2023-03-01T06:00:33;4.60;99.90
28171;DHT22;15458;53.346;-1.688;2023-03-01T06:03:00;4.60;99.90
28171;DHT22;15458;53.346;-1.688;2023-03-01T06:05:26;4.60;99.90
28171;DHT22;15458;53.346;-1.688;2023-03-01T06:07:53;4.60;99.90
28171;DHT22;15458;53.346;-1.688;2023-03-01T06:10:22;4.60;99.90
28171;DHT22;15458;53.346;-1.688;2023-03-01T06:12:48;4.50;99.90
28171;DHT22;15458;53.346;-1.688;2023-03-01T06:15:15;4.50;99.90
28171;DHT22;15458;53.346;-1.688;2023-03-01T06:17:43;4.50;99.90
28171;DHT22;15458;53.346;-1.688;2023-03-01T06:20:10;4.50;99.90
28171;DHT22;15458;53.346;-1.688;2023-03-01T06:22:37;4.50;99.90
28171;DHT22;15458;53.346;-1.688;2023-03-01T06:25:04;4.50;99.90
28171;DHT22;15458;53.346;-1.688;2023-03-01T06:27:30;4.50;99.90
28171;DHT22;15458;53.346;-1.688;2023-03-01T06:29:55;4.50;99.90
28171;DHT22;15458;53.346;-1.688;2023-03-01T06:32:21;4.50;99.90
28171;DHT22;15458;53.346;-1.688;2023-03-01T06:34:47;4.40;99.90
28171;DHT22;15458;53.346;-1.688;2023-03-01T06:37:13;4.50;99.90
28171;DHT22;15458;53.346;-1.688;2023-03-01T06:39:38;4.40;99.90
28171;DHT22;15458;53.346;-1.688;2023-03-01T06:42:04;4.40;99.90
28171;DHT22;15458;53.346;-1.688;2023-03-01T06:44:30;4.40;99.90
28171;DHT22;15458;53.346;-1.688;2023-03-01T06:46:56;4.40;99.90
28171;DHT22;15458;53.346;-1.688;2023-03-01T06:49:22;4.40;99.90
28171;DHT22;15458;53.346;-1.688;2023-03-01T06:51:47;4.40;99.90
28171;DHT22;15458;53.346;-1.688;2023-03-01T06:54:13;4.40;99.90
28171;DHT22;15458;53.346;-1.688;2023-03-01T06:56:39;4.40;99.90
28171;DHT22;15458;53.346;-1.688;2023-03-01T06:59:05;4.40;99.90
28171;DHT22;15458;53.346;-1.688;2023-03-01T07:01:31;4.40;99.90
28171;DHT22;15458;53.346;-1.688;2023-03-01T07:03:57;4.40;99.90
28171;DHT22;15458;53.346;-1.688;2023-03-01T07:06:23;4.40;99.90
28171;DHT22;15458;53.346;-1.688;2023-03-01T07:08:49;4.50;99.90
28171;DHT22;15458;53.346;-1.688;2023-03-01T07:11:15;4.40;99.90
28171;DHT22;15458;53.346;-1.688;2023-03-01T07:13:41;4.40;99.90
28171;DHT22;15458;53.346;-1.688;2023-03-01T07:16:07;4.40;99.90
28171;DHT22;15458;53.346;-1.688;2023-03-01T07:18:33;4.40;99.90
28171;DHT22;15458;53.346;-1.688;2023-03-01T07:21:04;4.40;99.90
28171;DHT22;15458;53.346;-1.688;2023-03-01T07:23:30;4.40;99.90
28171;DHT22;15458;53.346;-1.688;2023-03-01T07:25:55;4.50;99.90
28171;DHT22;15458;53.346;-1.688;2023-03-01T07:28:24;4.50;99.90
28171;DHT22;15458;53.346;-1.688;2023-03-01T07:30:50;4.50;99.90
28171;DHT22;15458;53.346;-1.688;2023-03-01T07:33:16;4.50;99.90
28171;DHT22;15458;53.346;-1.688;2023-03-01T07:35:42;4.50;99.90
28171;DHT22;15458;53.346;-1.688;2023-03-01T07:38:08;4.50;99.90
28171;DHT22;15458;53.346;-1.688;2023-03-01T07:40:34;4.50;99.90
28171;DHT22;15458;53.346;-1.688;2023-03-01T07:43:00;4.50;99.90
28171;DHT22;15458;53.346;-1.688;2023-03-01T07:45:27;4.50;99.90
28171;DHT22;15458;53.346;-1.688;2023-03-01T07:47:53;4.50;99.90
28171;DHT22;15458;53.346;-1.688;2023-03-01T07:50:20;4.60;99.90
28171;DHT22;15458;53.346;-1.688;2023-03-01T07:52:46;4.60;99.90
28171;DHT22;15458;53.346;-1.688;2023-03-01T07:55:12;4.60;99.90
28171;DHT22;15458;53.346;-1.688;2023-03-01T07:57:39;4.60;99.90
28171;DHT22;15458;53.346;-1.688;2023-03-01T08:00:07;4.60;99.90
28171;DHT22;15458;53.346;-1.688;2023-03-01T08:02:33;4.60;99.90
28171;DHT22;15458;53.346;-1.688;2023-03-01T08:04:59;4.70;99.90
28171;DHT22;15458;53.346;-1.688;2023-03-01T08:07:25;4.70;99.90
28171;DHT22;15458;53.346;-1.688;2023-03-01T08:09:50;4.70;99.90
28171;DHT22;15458;53.346;-1.688;2023-03-01T08:12:16;4.70;99.90
28171;DHT22;15458;53.346;-1.688;2023-03-01T08:14:42;4.80;99.90
28171;DHT22;15458;53.346;-1.688;2023-03-01T08:17:08;4.80;99.90
28171;DHT22;15458;53.346;-1.688;2023-03-01T08:19:33;4.80;99.90
28171;DHT22;15458;53.346;-1.688;2023-03-01T08:22:01;4.90;99.90
28171;DHT22;15458;53.346;-1.688;2023-03-01T08:24:27;4.90;99.90
28171;DHT22;15458;53.346;-1.688;2023-03-01T08:26:53;5.00;99.90
28171;DHT22;15458;53.346;-1.688;2023-03-01T08:29:18;5.00;99.90
28171;DHT22;15458;53.346;-1.688;2023-03-01T08:31:44;5.00;99.90
28171;DHT22;15458;53.346;-1.688;2023-03-01T08:34:12;5.10;99.90
28171;DHT22;15458;53.346;-1.688;2023-03-01T08:36:40;5.10;99.90
28171;DHT22;15458;53.346;-1.688;2023-03-01T08:39:08;5.10;99.90
28171;DHT22;15458;53.346;-1.688;2023-03-01T08:41:34;5.20;99.90
28171;DHT22;15458;53.346;-1.688;2023-03-01T08:44:00;5.20;99.90
28171;DHT22;15458;53.346;-1.688;2023-03-01T08:46:37;5.30;99.90
28171;DHT22;15458;53.346;-1.688;2023-03-01T08:49:07;5.30;99.90
28171;DHT22;15458;53.346;-1.688;2023-03-01T08:51:35;5.40;99.90
28171;DHT22;15458;53.346;-1.688;2023-03-01T08:54:19;5.40;99.90
28171;DHT22;15458;53.346;-1.688;2023-03-01T08:56:45;5.50;99.90
28171;DHT22;15458;53.346;-1.688;2023-03-01T08:59:12;5.60;99.90
28171;DHT22;15458;53.346;-1.688;2023-03-01T09:01:39;5.60;99.90
28171;DHT22;15458;53.346;-1.688;2023-03-01T09:04:05;5.60;99.90
28171;DHT22;15458;53.346;-1.688;2023-03-01T09:06:32;5.70;99.90
28171;DHT22;15458;53.346;-1.688;2023-03-01T09:08:58;5.70;99.90
28171;DHT22;15458;53.346;-1.688;2023-03-01T09:11:24;5.70;99.90
28171;DHT22;15458;53.346;-1.688;2023-03-01T09:13:51;5.70;99.90
28171;DHT22;15458;53.346;-1.688;2023-03-01T09:16:20;5.80;99.90
28171;DHT22;15458;53.346;-1.688;2023-03-01T09:18:53;5.80;99.90
28171;DHT22;15458;53.346;-1.688;2023-03-01T09:21:21;5.80;99.90
28171;DHT22;15458;53.346;-1.688;2023-03-01T09:23:47;5.80;99.90
28171;DHT22;15458;53.346;-1.688;2023-03-01T09:26:16;5.80;99.90
28171;DHT22;15458;53.346;-1.688;2023-03-01T09:28:42;5.80;99.90
28171;DHT22;15458;53.346;-1.688;2023-03-01T09:31:09;5.80;99.90
28171;DHT22;15458;53.346;-1.688;2023-03-01T09:33:36;5.90;99.90
28171;DHT22;15458;53.346;-1.688;2023-03-01T09:36:09;5.90;99.90
28171;DHT22;15458;53.346;-1.688;2023-03-01T09:38:35;5.90;99.90
28171;DHT22;15458;53.346;-1.688;2023-03-01T09:41:01;6.00;99.90
28171;DHT22;15458;53.346;-1.688;2023-03-01T09:43:57;6.00;99.90
28171;DHT22;15458;53.346;-1.688;2023-03-01T09:46:25;6.10;99.90
28171;DHT22;15458;53.346;-1.688;2023-03-01T09:48:56;6.20;99.90
28171;DHT22;15458;53.346;-1.688;2023-03-01T09:51:34;6.20;99.90
28171;DHT22;15458;53.346;-1.688;2023-03-01T09:54:04;6.30;99.90
28171;DHT22;15458;53.346;-1.688;2023-03-01T09:56:51;6.50;99.90
28171;DHT22;15458;53.346;-1.688;2023-03-01T09:59:27;6.60;99.90
28171;DHT22;15458;53.346;-1.688;2023-03-01T10:02:18;6.80;99.90
28171;DHT22;15458;53.346;-1.688;2023-03-01T10:04:57;7.00;99.90
28171;DHT22;15458;53.346;-1.688;2023-03-01T10:09:59;7.50;99.90
28171;DHT22;15458;53.346;-1.688;2023-03-01T10:12:37;7.70;99.90
28171;DHT22;15458;53.346;-1.688;2023-03-01T10:15:29;7.80;99.90
28171;DHT22;15458;53.346;-1.688;2023-03-01T10:18:12;7.80;99.90
28171;DHT22;15458;53.346;-1.688;2023-03-01T10:20:45;7.90;99.90
28171;DHT22;15458;53.346;-1.688;2023-03-01T10:23:13;8.00;99.90
28171;DHT22;15458;53.346;-1.688;2023-03-01T10:28:37;8.10;99.90
28171;DHT22;15458;53.346;-1.688;2023-03-01T10:31:13;8.20;99.90
28171;DHT22;15458;53.346;-1.688;2023-03-01T10:33:41;8.20;99.90
28171;DHT22;15458;53.346;-1.688;2023-03-01T10:36:07;8.10;99.90
28171;DHT22;15458;53.346;-1.688;2023-03-01T10:38:54;8.00;99.90
28171;DHT22;15458;53.346;-1.688;2023-03-01T10:41:21;7.90;99.90
28171;DHT22;15458;53.346;-1.688;2023-03-01T10:43:56;7.70;99.90
28171;DHT22;15458;53.346;-1.688;2023-03-01T10:46:33;7.70;99.90
28171;DHT22;15458;53.346;-1.688;2023-03-01T10:51:46;7.80;99.90
28171;DHT22;15458;53.346;-1.688;2023-03-01T10:57:10;8.50;99.90
28171;DHT22;15458;53.346;-1.688;2023-03-01T11:00:02;8.80;99.90
28171;DHT22;15458;53.346;-1.688;2023-03-01T11:02:36;9.10;99.90
28171;DHT22;15458;53.346;-1.688;2023-03-01T11:07:50;9.10;99.90
28171;DHT22;15458;53.346;-1.688;2023-03-01T11:10:19;8.90;99.90
28171;DHT22;15458;53.346;-1.688;2023-03-01T11:12:45;8.80;99.90
28171;DHT22;15458;53.346;-1.688;2023-03-01T11:15:25;8.60;99.90
28171;DHT22;15458;53.346;-1.688;2023-03-01T11:17:52;8.60;99.90
28171;DHT22;15458;53.346;-1.688;2023-03-01T11:20:27;8.50;99.90
28171;DHT22;15458;53.346;-1.688;2023-03-01T11:22:58;8.40;99.90
28171;DHT22;15458;53.346;-1.688;2023-03-01T11:25:53;8.40;99.90
28171;DHT22;15458;53.346;-1.688;2023-03-01T11:28:18;8.30;99.90
28171;DHT22;15458;53.346;-1.688;2023-03-01T11:30:58;8.20;99.90
28171;DHT22;15458;53.346;-1.688;2023-03-01T11:38:40;8.60;99.90
28171;DHT22;15458;53.346;-1.688;2023-03-01T11:41:08;8.70;99.90
28171;DHT22;15458;53.346;-1.688;2023-03-01T11:43:47;8.80;99.90
28171;DHT22;15458;53.346;-1.688;2023-03-01T11:52:11;8.30;99.90
28171;DHT22;15458;53.346;-1.688;2023-03-01T11:57:24;8.10;99.90
28171;DHT22;15458;53.346;-1.688;2023-03-01T12:00:19;8.10;99.90
28171;DHT22;15458;53.346;-1.688;2023-03-01T12:08:49;8.00;99.90
28171;DHT22;15458;53.346;-1.688;2023-03-01T12:22:43;8.80;99.90
28171;DHT22;15458;53.346;-1.688;2023-03-01T12:28:40;9.70;99.90
28171;DHT22;15458;53.346;-1.688;2023-03-01T12:39:52;10.20;99.90
28171;DHT22;15458;53.346;-1.688;2023-03-01T12:50:49;9.90;99.90
28171;DHT22;15458;53.346;-1.688;2023-03-01T12:55:49;9.40;99.90
28171;DHT22;15458;53.346;-1.688;2023-03-01T13:11:48;8.80;99.90
28171;DHT22;15458;53.346;-1.688;2023-03-01T13:16:52;8.70;99.90
28171;DHT22;15458;53.346;-1.688;2023-03-01T13:19:28;8.80;99.90
28171;DHT22;15458;53.346;-1.688;2023-03-01T13:22:29;9.20;99.90
28171;DHT22;15458;53.346;-1.688;2023-03-01T13:25:11;9.50;99.90
28171;DHT22;15458;53.346;-1.688;2023-03-01T13:27:38;9.70;99.90
28171;DHT22;15458;53.346;-1.688;2023-03-01T13:30:12;9.70;99.90
28171;DHT22;15458;53.346;-1.688;2023-03-01T13:32:50;9.60;99.90
28171;DHT22;15458;53.346;-1.688;2023-03-01T13:37:42;9.40;99.90
28171;DHT22;15458;53.346;-1.688;2023-03-01T13:42:55;9.20;99.90
28171;DHT22;15458;53.346;-1.688;2023-03-01T13:45:24;9.00;99.90
28171;DHT22;15458;53.346;-1.688;2023-03-01T13:48:00;8.80;99.90
28171;DHT22;15458;53.346;-1.688;2023-03-01T13:50:29;8.60;99.90
28171;DHT22;15458;53.346;-1.688;2023-03-01T13:53:04;8.50;99.90
28171;DHT22;15458;53.346;-1.688;2023-03-01T13:55:40;8.50;99.90
28171;DHT22;15458;53.346;-1.688;2023-03-01T14:00:45;9.10;99.90
28171;DHT22;15458;53.346;-1.688;2023-03-01T14:05:41;10.00;99.90
28171;DHT22;15458;53.346;-1.688;2023-03-01T14:08:21;10.20;99.90
28171;DHT22;15458;53.346;-1.688;2023-03-01T14:19:03;10.00;99.90
28171;DHT22;15458;53.346;-1.688;2023-03-01T14:21:31;9.70;99.90
28171;DHT22;15458;53.346;-1.688;2023-03-01T14:23:58;9.40;99.90
28171;DHT22;15458;53.346;-1.688;2023-03-01T14:26:24;9.20;99.90
28171;DHT22;15458;53.346;-1.688;2023-03-01T14:28:53;8.90;99.90
28171;DHT22;15458;53.346;-1.688;2023-03-01T14:33:56;8.50;99.90
28171;DHT22;15458;53.346;-1.688;2023-03-01T14:36:33;8.30;99.90
28171;DHT22;15458;53.346;-1.688;2023-03-01T14:39:00;8.20;99.90
28171;DHT22;15458;53.346;-1.688;2023-03-01T14:41:33;8.20;99.90
28171;DHT22;15458;53.346;-1.688;2023-03-01T14:44:16;8.20;99.90
28171;DHT22;15458;53.346;-1.688;2023-03-01T14:46:44;8.50;99.90
28171;DHT22;15458;53.346;-1.688;2023-03-01T14:49:20;8.70;99.90
28171;DHT22;15458;53.346;-1.688;2023-03-01T14:51:57;8.80;99.90
28171;DHT22;15458;53.346;-1.688;2023-03-01T14:57:12;8.60;99.90
28171;DHT22;15458;53.346;-1.688;2023-03-01T14:59:42;8.50;99.90
28171;DHT22;15458;53.346;-1.688;2023-03-01T15:02:15;8.30;99.90
28171;DHT22;15458;53.346;-1.688;2023-03-01T15:04:46;8.20;99.90
28171;DHT22;15458;53.346;-1.688;2023-03-01T15:07:14;8.10;99.90
28171;DHT22;15458;53.346;-1.688;2023-03-01T15:09:40;8.10;99.90
28171;DHT22;15458;53.346;-1.688;2023-03-01T15:14:54;8.00;99.90
28171;DHT22;15458;53.346;-1.688;2023-03-01T15:17:30;7.90;99.90
28171;DHT22;15458;53.346;-1.688;2023-03-01T15:19:57;7.80;99.90
28171;DHT22;15458;53.346;-1.688;2023-03-01T15:22:25;7.70;99.90
28171;DHT22;15458;53.346;-1.688;2023-03-01T15:24:52;7.60;99.90
28171;DHT22;15458;53.346;-1.688;2023-03-01T15:27:21;7.70;99.90
28171;DHT22;15458;53.346;-1.688;2023-03-01T15:29:50;7.80;99.90
28171;DHT22;15458;53.346;-1.688;2023-03-01T15:32:34;7.90;99.90
28171;DHT22;15458;53.346;-1.688;2023-03-01T15:35:01;8.00;99.90
28171;DHT22;15458;53.346;-1.688;2023-03-01T15:37:48;8.00;99.90
28171;DHT22;15458;53.346;-1.688;2023-03-01T15:42:50;7.90;99.90
28171;DHT22;15458;53.346;-1.688;2023-03-01T15:50:30;7.80;99.90
28171;DHT22;15458;53.346;-1.688;2023-03-01T15:53:04;7.70;99.90
28171;DHT22;15458;53.346;-1.688;2023-03-01T15:55:32;7.70;99.90
28171;DHT22;15458;53.346;-1.688;2023-03-01T15:58:12;7.60;99.90
28171;DHT22;15458;53.346;-1.688;2023-03-01T16:00:41;7.50;99.90
28171;DHT22;15458;53.346;-1.688;2023-03-01T16:03:11;7.40;99.90
28171;DHT22;15458;53.346;-1.688;2023-03-01T16:05:38;7.30;99.90
28171;DHT22;15458;53.346;-1.688;2023-03-01T16:08:06;7.30;99.90
28171;DHT22;15458;53.346;-1.688;2023-03-01T16:10:33;7.20;99.90
28171;DHT22;15458;53.346;-1.688;2023-03-01T16:12:59;7.10;99.90
28171;DHT22;15458;53.346;-1.688;2023-03-01T16:15:32;7.10;99.90
28171;DHT22;15458;53.346;-1.688;2023-03-01T16:18:03;7.00;99.90
28171;DHT22;15458;53.346;-1.688;2023-03-01T16:20:31;6.90;99.90
28171;DHT22;15458;53.346;-1.688;2023-03-01T16:23:02;6.90;99.90
28171;DHT22;15458;53.346;-1.688;2023-03-01T16:25:29;6.80;99.90
28171;DHT22;15458;53.346;-1.688;2023-03-01T16:27:55;6.80;99.90
28171;DHT22;15458;53.346;-1.688;2023-03-01T16:30:23;6.70;99.90
28171;DHT22;15458;53.346;-1.688;2023-03-01T16:32:50;6.70;99.90
28171;DHT22;15458;53.346;-1.688;2023-03-01T16:35:19;6.70;99.90
28171;DHT22;15458;53.346;-1.688;2023-03-01T16:37:46;6.70;99.90
28171;DHT22;15458;53.346;-1.688;2023-03-01T16:40:24;6.60;99.90
28171;DHT22;15458;53.346;-1.688;2023-03-01T16:42:51;6.60;99.90
28171;DHT22;15458;53.346;-1.688;2023-03-01T16:45:18;6.60;99.90
28171;DHT22;15458;53.346;-1.688;2023-03-01T17:04:24;6.40;99.90
28171;DHT22;15458;53.346;-1.688;2023-03-01T17:06:58;6.40;99.90
28171;DHT22;15458;53.346;-1.688;2023-03-01T17:09:38;6.40;99.90
28171;DHT22;15458;53.346;-1.688;2023-03-01T17:12:12;6.30;99.90
28171;DHT22;15458;53.346;-1.688;2023-03-01T17:14:41;6.30;99.90
28171;DHT22;15458;53.346;-1.688;2023-03-01T17:17:10;6.20;99.90
28171;DHT22;15458;53.346;-1.688;2023-03-01T17:19:37;6.20;99.90
28171;DHT22;15458;53.346;-1.688;2023-03-01T17:22:09;6.10;99.90
28171;DHT22;15458;53.346;-1.688;2023-03-01T17:24:37;6.10;99.90
28171;DHT22;15458;53.346;-1.688;2023-03-01T17:27:04;6.00;99.90
28171;DHT22;15458;53.346;-1.688;2023-03-01T17:29:30;6.00;99.90
28171;DHT22;15458;53.346;-1.688;2023-03-01T17:31:55;6.00;99.90
28171;DHT22;15458;53.346;-1.688;2023-03-01T17:34:22;6.00;99.90
28171;DHT22;15458;53.346;-1.688;2023-03-01T17:36:48;6.00;99.90
28171;DHT22;15458;53.346;-1.688;2023-03-01T17:39:17;6.00;99.90
28171;DHT22;15458;53.346;-1.688;2023-03-01T17:41:44;6.10;99.90
28171;DHT22;15458;53.346;-1.688;2023-03-01T17:44:10;6.10;99.90
28171;DHT22;15458;53.346;-1.688;2023-03-01T17:46:36;6.10;99.90
28171;DHT22;15458;53.346;-1.688;2023-03-01T17:49:02;6.10;99.90
28171;DHT22;15458;53.346;-1.688;2023-03-01T17:51:28;6.10;99.90
28171;DHT22;15458;53.346;-1.688;2023-03-01T17:53:57;6.10;99.90
28171;DHT22;15458;53.346;-1.688;2023-03-01T17:56:26;6.10;99.90
28171;DHT22;15458;53.346;-1.688;2023-03-01T17:58:52;6.10;99.90
28171;DHT22;15458;53.346;-1.688;2023-03-01T18:01:20;6.10;99.90
28171;DHT22;15458;53.346;-1.688;2023-03-01T18:03:46;6.10;99.90
28171;DHT22;15458;53.346;-1.688;2023-03-01T18:06:21;6.00;99.90
28171;DHT22;15458;53.346;-1.688;2023-03-01T18:08:48;6.00;99.90
28171;DHT22;15458;53.346;-1.688;2023-03-01T18:11:18;6.00;99.90
28171;DHT22;15458;53.346;-1.688;2023-03-01T18:13:46;6.00;99.90
28171;DHT22;15458;53.346;-1.688;2023-03-01T18:16:18;5.90;99.90